Time;durP1;ratioP1;P1;durP2;ratioP2;P2;SDS_P1;SDS_P2;PMS_P1;PMS_P2;Temp;Humidity;BMP_temperature;BMP_pressure;BME280_temperature;BME280_humidity;BME280_pressure;Samples;Min_cycle;Max_cycle;Signal;HPM_P1;HPM_P2
2022/03/28 00:01:18;;;;;;;9.27;8.38;;;;;;;19.20;38.18;101664.56;5125726;27;20025;-39
2022/03/28 00:03:50;;;;;;;9.48;7.95;;;;;;;19.19;38.32;101671.69;5114918;27;20031;-39
2022/03/28 00:06:16;;;;;;;10.55;7.72;;;;;;;19.19;38.18;101666.41;5106873;27;20086;-39
2022/03/28 00:08:41;;;;;;;10.73;7.45;;;;;;;19.18;38.14;101661.28;5123515;28;20551;-40
2022/03/28 00:11:07;;;;;;;8.75;7.85;;;;;;;19.17;38.15;101657.81;5120609;27;20069;-39
2022/03/28 00:13:34;;;;;;;8.85;7.95;;;;;;;19.17;38.05;101654.34;5095298;28;20422;-39
2022/03/28 00:16:00;;;;;;;8.55;7.57;;;;;;;19.17;38.15;101651.72;5123716;28;20034;-39
2022/03/28 00:18:25;;;;;;;8.88;7.78;;;;;;;19.17;38.14;101651.72;5126177;28;20035;-39
2022/03/28 00:20:53;;;;;;;9.02;7.55;;;;;;;19.16;38.03;101642.13;5122333;28;20023;-39
2022/03/28 00:23:20;;;;;;;8.65;7.20;;;;;;;19.15;37.98;101638.69;5121138;28;20027;-39
2022/03/28 00:25:45;;;;;;;8.48;7.32;;;;;;;19.15;38.06;101624.63;5114292;28;20433;-39
2022/03/28 00:28:12;;;;;;;9.25;7.65;;;;;;;19.14;38.13;101628.28;5126661;28;20042;-39
2022/03/28 00:30:38;;;;;;;9.40;7.38;;;;;;;19.14;38.09;101631.75;5113090;28;20467;-39
2022/03/28 00:33:04;;;;;;;10.07;8.07;;;;;;;19.14;37.94;101625.63;5116219;28;20042;-38
2022/03/28 00:35:30;;;;;;;9.77;7.97;;;;;;;19.15;37.91;101627.28;5105447;28;20031;-39
2022/03/28 00:37:55;;;;;;;8.80;7.70;;;;;;;19.15;37.92;101628.09;5124903;28;20467;-40
2022/03/28 00:40:22;;;;;;;8.05;7.25;;;;;;;19.16;37.82;101636.84;5112446;28;20046;-39
2022/03/28 00:42:48;;;;;;;9.02;7.25;;;;;;;19.16;37.78;101621.81;5122416;28;20050;-39
2022/03/28 00:45:15;;;;;;;9.90;8.63;;;;;;;19.17;37.71;101626.13;5124359;28;20466;-39
2022/03/28 00:47:41;;;;;;;7.85;7.05;;;;;;;19.18;37.69;101616.38;5126320;28;20054;-39
2022/03/28 00:50:08;;;;;;;9.13;7.60;;;;;;;19.18;37.64;101616.38;5124024;28;20374;-39
2022/03/28 00:52:34;;;;;;;8.75;7.15;;;;;;;19.19;37.71;101607.44;5123532;28;20047;-39
2022/03/28 00:55:01;;;;;;;8.00;7.05;;;;;;;19.20;37.63;101615.22;5125436;28;20043;-39
2022/03/28 00:57:29;;;;;;;7.72;6.78;;;;;;;19.19;37.52;101607.44;5124687;28;20149;-39
2022/03/28 00:59:55;;;;;;;9.15;7.43;;;;;;;19.20;37.54;101602.00;5112571;28;20088;-39
2022/03/28 01:02:20;;;;;;;7.88;7.07;;;;;;;19.20;37.53;101606.47;5110839;28;20024;-39
2022/03/28 01:04:46;;;;;;;7.55;6.68;;;;;;;19.20;37.51;101593.25;5122306;28;20031;-39
2022/03/28 01:07:13;;;;;;;8.82;7.72;;;;;;;19.20;37.48;101599.34;5124550;28;20279;-39
2022/03/28 01:09:39;;;;;;;8.43;7.57;;;;;;;19.19;37.46;101591.59;5124972;28;20548;-39
2022/03/28 01:12:06;;;;;;;9.77;7.65;;;;;;;19.19;37.51;101586.31;5121976;28;20034;-39
2022/03/28 01:14:32;;;;;;;8.07;7.25;;;;;;;19.18;37.43;101584.66;5111450;28;20066;-39
2022/03/28 01:19:41;;;;;;;8.45;7.35;;;;;;;19.16;37.41;101582.19;5123564;28;20061;-39
2022/03/28 01:22:07;;;;;;;7.88;7.13;;;;;;;19.15;37.38;101572.63;5116284;27;20545;-39
2022/03/28 01:24:32;;;;;;;8.02;7.22;;;;;;;19.15;37.47;101574.44;5126479;27;20502;-38
2022/03/28 01:26:58;;;;;;;8.85;7.53;;;;;;;19.15;37.42;101571.81;5129304;27;20430;-39
2022/03/28 01:29:25;;;;;;;8.13;7.25;;;;;;;19.15;37.57;101572.63;5127219;27;20359;-39
2022/03/28 01:31:50;;;;;;;9.27;7.93;;;;;;;19.14;37.59;101573.63;5129506;27;20555;-39
2022/03/28 01:34:20;;;;;;;7.88;7.07;;;;;;;19.13;37.36;101577.25;5126752;27;20137;-39
2022/03/28 01:36:47;;;;;;;9.18;7.70;;;;;;;19.12;37.54;101580.91;5127223;27;20035;-39
2022/03/28 01:39:14;;;;;;;8.93;7.93;;;;;;;19.13;37.55;101581.72;5126901;27;20561;-39
2022/03/28 01:41:40;;;;;;;8.98;7.80;;;;;;;19.12;37.51;101580.91;5129196;27;20623;-40
2022/03/28 01:44:07;;;;;;;8.85;7.35;;;;;;;19.11;37.47;101575.78;5128105;27;20122;-39
2022/03/28 01:46:45;;;;;;;8.95;7.75;;;;;;;19.09;37.56;101575.97;5123972;27;20039;-39
2022/03/28 01:49:12;;;;;;;8.68;7.43;;;;;;;19.11;37.55;101581.06;5120315;27;20049;-39
2022/03/28 01:51:38;;;;;;;9.95;7.50;;;;;;;19.10;37.63;101579.44;5123098;27;20070;-39
2022/03/28 01:54:23;;;;;;;8.73;7.10;;;;;;;19.11;37.54;101575.78;5128919;27;20062;-39
2022/03/28 01:56:48;;;;;;;7.25;6.47;;;;;;;19.09;37.65;101575.13;5126513;27;20362;-39
2022/03/28 01:59:14;;;;;;;9.07;7.85;;;;;;;19.09;37.67;101580.41;5127085;27;20041;-39
2022/03/28 02:01:39;;;;;;;8.68;7.60;;;;;;;19.09;37.58;101575.97;5125817;27;20027;-39
2022/03/28 02:04:05;;;;;;;9.18;6.90;;;;;;;19.10;37.57;101574.16;5126039;27;20035;-39
2022/03/28 02:06:34;;;;;;;10.02;7.95;;;;;;;19.09;37.58;101575.97;5127770;27;20043;-39
2022/03/28 02:08:59;;;;;;;7.80;7.00;;;;;;;19.10;37.49;101572.31;5128206;27;20023;-40
2022/03/28 02:11:25;;;;;;;10.30;7.78;;;;;;;19.10;37.48;101574.97;5434521;22;20772;-40
2022/03/28 02:13:50;;;;;;;8.45;7.03;;;;;;;19.10;37.26;101574.97;5048232;28;20029;-39
2022/03/28 02:16:16;;;;;;;8.60;7.15;;;;;;;19.10;37.58;101569.69;5048433;28;20491;-39
2022/03/28 02:18:41;;;;;;;7.80;7.00;;;;;;;19.10;37.47;101574.97;5048241;28;20043;-39
2022/03/28 02:21:07;;;;;;;8.75;7.38;;;;;;;19.10;37.69;101566.22;5048512;28;20300;-39
2022/03/28 02:23:32;;;;;;;8.55;7.18;;;;;;;19.09;37.57;101565.41;5048141;28;20040;-40
2022/03/28 02:25:58;;;;;;;8.40;7.57;;;;;;;19.09;37.59;101564.56;5048072;28;20029;-39
2022/03/28 02:28:25;;;;;;;9.10;7.63;;;;;;;19.08;37.65;101563.75;5048305;28;20025;-39
2022/03/28 02:30:50;;;;;;;7.50;6.80;;;;;;;19.08;37.57;101562.94;5067988;28;20029;-39
2022/03/28 02:33:16;;;;;;;8.30;7.40;;;;;;;19.07;37.70;101556.00;5067445;28;20074;-39
2022/03/28 02:35:42;;;;;;;7.88;7.07;;;;;;;19.06;37.45;101552.53;5067961;28;20024;-39
2022/03/28 02:38:08;;;;;;;7.90;7.00;;;;;;;19.06;37.44;101559.63;5067847;28;20032;-39
2022/03/28 02:40:34;;;;;;;8.68;7.47;;;;;;;19.06;37.35;101557.00;5068184;28;20545;-39
2022/03/28 02:43:00;;;;;;;10.63;7.93;;;;;;;19.07;37.39;101553.34;5068095;28;20024;-39
2022/03/28 02:45:28;;;;;;;8.93;7.05;;;;;;;19.04;37.36;101546.59;5067714;28;20036;-39
2022/03/28 02:47:54;;;;;;;8.27;7.35;;;;;;;19.06;37.44;101549.06;5067664;28;20125;-39
2022/03/28 02:50:19;;;;;;;8.05;7.03;;;;;;;19.05;37.36;101542.16;5067687;28;20056;-39
2022/03/28 02:52:45;;;;;;;7.85;7.05;;;;;;;19.06;37.39;101547.25;5068081;28;20280;-39
2022/03/28 02:55:11;;;;;;;8.65;7.35;;;;;;;19.07;37.29;101537.50;5068095;28;20064;-39
2022/03/28 02:57:37;;;;;;;7.50;6.72;;;;;;;19.07;37.28;101540.16;5067885;28;20111;-39
2022/03/28 03:00:07;;;;;;;9.18;7.22;;;;;;;19.07;37.36;101533.06;5067544;28;20259;-39
2022/03/28 03:02:34;;;;;;;7.13;6.45;;;;;;;19.09;37.30;101535.53;5067226;28;20085;-39
2022/03/28 03:04:59;;;;;;;7.60;6.80;;;;;;;19.10;37.35;101537.16;5067276;28;20080;-39
2022/03/28 03:07:25;;;;;;;7.22;6.35;;;;;;;19.10;37.30;101534.53;5067319;28;20024;-39
2022/03/28 03:09:51;;;;;;;8.10;7.22;;;;;;;19.10;37.53;101530.06;5067708;28;20464;-39
2022/03/28 03:12:16;;;;;;;8.10;7.15;;;;;;;19.11;37.17;101536.16;5067130;28;20295;-39
2022/03/28 03:14:42;;;;;;;8.60;7.70;;;;;;;19.11;37.10;101536.16;5067234;28;20380;-39
2022/03/28 03:17:07;;;;;;;8.75;6.88;;;;;;;19.10;37.27;101534.53;5067275;28;20234;-39
2022/03/28 03:19:33;;;;;;;8.02;7.22;;;;;;;19.10;37.22;101531.88;5067523;28;20351;-39
2022/03/28 03:21:58;;;;;;;9.07;7.57;;;;;;;19.10;37.10;101531.88;5067009;28;20029;-39
2022/03/28 03:27:08;;;;;;;7.75;6.90;;;;;;;19.08;36.97;101529.41;5067146;28;20043;-39
2022/03/28 03:29:34;;;;;;;11.32;7.53;;;;;;;19.08;37.12;101531.22;5067114;28;20020;-39
2022/03/28 03:32:00;;;;;;;8.50;7.00;;;;;;;19.08;37.32;101532.06;5066836;28;20075;-39
2022/03/28 03:34:26;;;;;;;7.75;6.97;;;;;;;19.07;37.23;101530.41;5066802;28;20119;-39
2022/03/28 03:36:52;;;;;;;8.15;7.28;;;;;;;19.08;37.17;101525.94;5066932;28;20432;-39
2022/03/28 03:39:17;;;;;;;7.55;6.80;;;;;;;19.07;37.49;101535.69;5066989;28;20024;-39
2022/03/28 03:41:43;;;;;;;9.18;7.28;;;;;;;19.06;37.08;101533.22;5066772;28;20525;-39
2022/03/28 03:44:09;;;;;;;8.57;7.68;;;;;;;19.06;37.19;101525.31;5066095;28;20025;-39
2022/03/28 03:46:34;;;;;;;7.97;6.75;;;;;;;19.04;37.22;101527.28;5067001;28;20115;-39
2022/03/28 03:49:00;;;;;;;8.68;7.75;;;;;;;19.04;37.38;101530.75;5066795;28;20027;-39
2022/03/28 03:51:25;;;;;;;8.63;6.95;;;;;;;19.03;37.18;101530.94;5066849;28;20525;-39
2022/03/28 03:53:51;;;;;;;9.15;7.53;;;;;;;19.03;37.12;101530.94;5067101;28;20210;-39
2022/03/28 03:56:17;;;;;;;9.32;6.65;;;;;;;19.03;37.15;101528.28;5066983;28;20418;-39
2022/03/28 03:58:42;;;;;;;7.97;6.88;;;;;;;19.01;37.16;101525.81;5066929;28;20025;-39
2022/03/28 04:01:08;;;;;;;9.15;7.32;;;;;;;19.01;37.27;101530.28;5067023;28;20033;-39
2022/03/28 04:03:35;;;;;;;7.85;7.05;;;;;;;19.00;37.30;101520.72;5067034;28;20059;-39
2022/03/28 04:06:00;;;;;;;8.55;7.18;;;;;;;19.00;37.13;101523.34;5066659;28;20028;-39
2022/03/28 04:08:27;;;;;;;8.07;6.43;;;;;;;18.99;37.31;101527.00;5066705;28;20635;-39
2022/03/28 04:10:53;;;;;;;7.95;6.97;;;;;;;18.99;37.67;101522.53;5071103;28;20178;-39
2022/03/28 04:13:18;;;;;;;8.30;6.85;;;;;;;19.00;38.06;101523.34;5066393;28;20142;-39
2022/03/28 04:15:44;;;;;;;10.88;7.32;;;;;;;19.00;38.56;101528.63;5066613;28;20040;-39
2022/03/28 04:18:10;;;;;;;10.02;8.02;;;;;;;19.00;38.86;101534.75;5067322;28;20120;-38
2022/03/28 04:20:35;;;;;;;8.70;6.95;;;;;;;19.01;39.00;101523.19;5072047;28;20024;-39
2022/03/28 04:23:01;;;;;;;9.07;7.28;;;;;;;19.00;39.00;101521.53;5078006;28;20028;-39
2022/03/28 04:25:27;;;;;;;8.13;7.35;;;;;;;19.00;39.00;101528.63;5067365;28;20111;-39
2022/03/28 04:27:52;;;;;;;10.23;6.88;;;;;;;19.01;39.25;101530.28;5066430;28;20062;-39
2022/03/28 04:30:18;;;;;;;8.85;7.40;;;;;;;19.00;39.45;101524.19;5070523;28;20016;-38
2022/03/28 04:32:43;;;;;;;8.52;7.60;;;;;;;19.00;39.34;101526.00;5086903;28;20064;-39
2022/03/28 04:35:10;;;;;;;9.50;7.60;;;;;;;19.00;39.44;101523.34;5086608;28;20047;-39
2022/03/28 04:37:41;;;;;;;8.27;7.18;;;;;;;18.99;39.53;101521.72;5086367;28;20024;-39
2022/03/28 04:40:09;;;;;;;10.50;7.20;;;;;;;18.98;39.43;101522.69;5084601;28;20032;-38
2022/03/28 04:42:36;;;;;;;9.38;7.15;;;;;;;18.99;39.49;101527.00;5086359;28;20036;-39
2022/03/28 04:45:02;;;;;;;8.27;7.43;;;;;;;18.99;39.48;101529.63;5086171;28;20036;-38
2022/03/28 04:47:29;;;;;;;8.85;7.32;;;;;;;18.97;39.59;101524.53;5086133;28;20020;-38
2022/03/28 04:49:55;;;;;;;8.77;7.28;;;;;;;18.97;39.46;101523.69;5084369;28;20271;-38
2022/03/28 04:52:20;;;;;;;7.30;6.60;;;;;;;18.96;39.34;101528.16;5085776;28;20039;-38
2022/03/28 04:54:46;;;;;;;8.40;7.03;;;;;;;18.94;39.32;101519.59;5086196;28;20107;-40
2022/03/28 04:57:11;;;;;;;8.10;7.07;;;;;;;18.95;39.26;101528.34;5088899;28;20142;-38
2022/03/28 04:59:36;;;;;;;9.45;7.40;;;;;;;18.95;39.26;101523.06;5089497;28;20023;-39
2022/03/28 05:02:02;;;;;;;7.70;6.95;;;;;;;18.95;39.16;101528.34;5088305;28;20120;-39
2022/03/28 05:04:27;;;;;;;11.73;7.35;;;;;;;18.95;39.05;101529.16;5090053;28;20053;-38
2022/03/28 05:06:53;;;;;;;8.93;7.05;;;;;;;18.96;39.00;101527.34;5089856;28;20412;-38
2022/03/28 05:09:19;;;;;;;8.02;6.82;;;;;;;18.98;39.23;101530.63;5090049;28;20052;-39
2022/03/28 05:11:44;;;;;;;7.57;6.78;;;;;;;18.97;39.04;101523.69;5071076;28;20052;-38
2022/03/28 05:14:10;;;;;;;8.55;6.85;;;;;;;18.98;39.34;101520.88;5069699;28;20479;-38
2022/03/28 05:16:36;;;;;;;8.65;7.05;;;;;;;18.99;39.32;101521.72;5068984;28;20048;-38
2022/03/28 05:19:02;;;;;;;7.72;6.90;;;;;;;18.99;39.31;101521.72;5069206;28;20113;-38
2022/03/28 05:21:27;;;;;;;8.02;7.05;;;;;;;18.99;39.45;101521.72;5070536;28;20489;-38
2022/03/28 05:23:53;;;;;;;8.60;7.70;;;;;;;19.00;39.34;101520.72;5069294;28;20468;-38
2022/03/28 05:26:19;;;;;;;10.00;7.60;;;;;;;19.00;39.13;101528.63;5083238;28;20032;-38
2022/03/28 05:28:44;;;;;;;8.35;7.50;;;;;;;19.01;39.00;101525.81;5089868;28;20028;-38
2022/03/28 05:31:10;;;;;;;8.23;7.10;;;;;;;19.01;38.90;101530.28;5070350;28;20658;-39
2022/03/28 05:33:35;;;;;;;9.25;7.18;;;;;;;18.99;38.94;101527.00;5089665;28;20098;-38
2022/03/28 05:36:01;;;;;;;9.50;7.20;;;;;;;18.99;39.16;101527.00;5089314;28;20497;-39
2022/03/28 05:38:27;;;;;;;7.63;6.82;;;;;;;19.00;39.01;101531.28;5089476;28;20031;-38
2022/03/28 05:40:55;;;;;;;9.73;7.28;;;;;;;18.99;39.03;101530.44;5087040;28;20024;-38
2022/03/28 05:43:20;;;;;;;8.15;7.35;;;;;;;18.99;39.12;101522.53;5089511;28;20024;-38
2022/03/28 05:45:45;;;;;;;7.85;6.45;;;;;;;18.99;39.04;101534.91;5087822;28;20321;-39
2022/03/28 05:48:11;;;;;;;9.95;7.63;;;;;;;18.98;39.09;101542.00;5070915;28;20040;-38
2022/03/28 05:50:36;;;;;;;8.63;7.47;;;;;;;18.98;39.10;101541.19;5087824;28;20028;-39
2022/03/28 05:53:02;;;;;;;11.23;8.02;;;;;;;18.97;39.19;101540.38;5088988;28;20042;-39
2022/03/28 05:55:27;;;;;;;8.77;7.53;;;;;;;18.97;39.04;101542.19;5088538;28;20143;-38
2022/03/28 05:57:53;;;;;;;7.68;6.88;;;;;;;18.96;38.93;101544.00;5088973;28;20143;-38
2022/03/28 06:00:18;;;;;;;8.32;7.28;;;;;;;18.95;39.03;101541.53;5087389;28;20052;-39
2022/03/28 06:02:44;;;;;;;7.78;6.88;;;;;;;18.95;38.98;101542.34;5089155;28;20298;-40
2022/03/28 06:05:12;;;;;;;9.98;8.02;;;;;;;18.94;38.98;101539.88;5089191;28;20031;-39
2022/03/28 06:07:37;;;;;;;8.98;7.43;;;;;;;18.93;39.05;101539.06;5087896;28;20035;-39
2022/03/28 06:10:04;;;;;;;9.02;7.00;;;;;;;18.93;39.10;101543.53;5081406;28;20426;-39
2022/03/28 06:12:30;;;;;;;9.05;6.72;;;;;;;18.92;38.95;101537.41;5068134;28;20411;-38
2022/03/28 06:14:56;;;;;;;8.65;7.75;;;;;;;18.92;39.11;101542.69;5068483;28;20119;-39
2022/03/28 06:17:23;;;;;;;9.57;7.20;;;;;;;18.90;39.25;101537.59;5068392;28;20153;-39
2022/03/28 06:19:49;;;;;;;8.93;7.45;;;;;;;18.90;39.03;101534.94;5069162;28;20094;-38
2022/03/28 06:22:19;;;;;;;9.32;8.15;;;;;;;18.89;38.90;101535.16;5068183;28;20032;-39
2022/03/28 06:24:45;;;;;;;7.80;7.03;;;;;;;18.90;38.93;101534.16;5070507;28;20028;-39
2022/03/28 06:27:11;;;;;;;10.18;7.50;;;;;;;18.90;38.67;101531.53;5088644;28;20042;-39
2022/03/28 06:29:37;;;;;;;7.13;6.43;;;;;;;18.89;38.78;101528.06;5086743;28;20028;-39
2022/03/28 06:32:03;;;;;;;8.10;7.00;;;;;;;18.88;39.01;101526.41;5088259;28;20505;-38
2022/03/28 06:34:28;;;;;;;10.05;6.78;;;;;;;18.88;38.85;101526.41;5088133;28;20028;-39
2022/03/28 06:36:54;;;;;;;7.20;6.50;;;;;;;18.88;38.85;101526.41;5088054;28;20043;-39
2022/03/28 06:39:20;;;;;;;8.20;6.70;;;;;;;18.88;38.82;101523.78;5077063;28;20032;-39
2022/03/28 06:41:45;;;;;;;10.05;6.68;;;;;;;18.89;38.77;101522.78;5087070;28;20052;-38
2022/03/28 06:44:11;;;;;;;8.35;7.07;;;;;;;18.89;38.67;101524.59;5087843;28;20020;-38
2022/03/28 06:46:39;;;;;;;10.38;7.32;;;;;;;18.89;39.20;101524.59;5083160;28;20032;-40
2022/03/28 06:49:06;;;;;;;9.88;7.00;;;;;;;18.89;39.58;101522.78;5067627;28;20028;-41
2022/03/28 06:51:32;;;;;;;11.98;7.97;;;;;;;18.93;40.52;101528.50;5067811;28;20071;-40
2022/03/28 06:53:58;;;;;;;14.93;10.73;;;;;;;19.03;43.56;101523.81;5068332;28;20519;-40
2022/03/28 06:56:23;;;;;;;11.90;9.52;;;;;;;19.06;43.43;101533.22;5072225;28;20035;-39
2022/03/28 06:58:49;;;;;;;15.50;9.43;;;;;;;19.04;42.89;101525.47;5087304;28;20028;-40
2022/03/28 07:01:14;;;;;;;14.18;9.27;;;;;;;19.08;42.71;101528.59;5087732;28;20114;-40
2022/03/28 07:03:40;;;;;;;19.13;10.73;;;;;;;19.12;42.93;101529.88;5085606;28;20032;-38
2022/03/28 07:06:05;;;;;;;14.20;9.90;;;;;;;19.13;42.89;101534.19;5085758;28;20036;-40
2022/03/28 07:08:31;;;;;;;14.35;8.45;;;;;;;19.10;42.63;101529.25;5067171;28;20683;-40
2022/03/28 07:10:58;;;;;;;11.32;8.13;;;;;;;19.08;42.63;101525.94;5067056;28;20082;-40
2022/03/28 07:13:23;;;;;;;14.70;7.90;;;;;;;19.06;42.30;101527.94;5067120;28;20399;-39
2022/03/28 07:15:49;;;;;;;11.32;7.68;;;;;;;19.05;42.25;101524.47;5067176;28;20021;-42
2022/03/28 07:18:14;;;;;;;10.77;7.07;;;;;;;19.06;42.36;101525.31;5068077;28;20036;-40
2022/03/28 07:20:43;;;;;;;13.48;6.93;;;;;;;19.05;42.43;101524.47;5067368;28;20097;-40
2022/03/28 07:23:09;;;;;;;17.60;7.22;;;;;;;19.06;42.17;101527.94;5066944;28;20044;-43
2022/03/28 07:25:36;;;;;;;17.65;7.28;;;;;;;19.07;42.09;101540.16;5071472;28;20031;-41
2022/03/28 07:28:07;;;;;;;12.27;6.90;;;;;;;19.06;42.06;101527.94;5066851;28;20103;-40
2022/03/28 07:30:33;;;;;;;10.77;7.43;;;;;;;19.05;42.02;101532.41;5066892;28;20024;-39
2022/03/28 07:32:59;;;;;;;11.13;6.35;;;;;;;19.04;42.02;101522.84;5079962;28;20090;-40
2022/03/28 07:35:25;;;;;;;10.73;6.88;;;;;;;19.06;42.42;101520.84;5085397;28;20074;-40
2022/03/28 07:37:50;;;;;;;12.25;7.00;;;;;;;19.06;42.69;101523.47;5087487;28;20028;-42
2022/03/28 07:40:16;;;;;;;12.48;7.45;;;;;;;19.07;42.25;101525.13;5087198;28;20039;-40
2022/03/28 07:42:43;;;;;;;12.77;6.78;;;;;;;19.07;42.18;101535.69;5087132;28;20024;-43
2022/03/28 07:45:09;;;;;;;12.48;7.60;;;;;;;19.07;42.15;101526.94;5085241;28;20032;-40
2022/03/28 07:47:36;;;;;;;11.98;8.40;;;;;;;19.06;41.87;101520.03;5064936;28;20056;-41
2022/03/28 07:50:03;;;;;;;13.93;7.63;;;;;;;19.06;41.63;101518.19;5082566;28;20047;-41
2022/03/28 07:52:29;;;;;;;14.73;7.20;;;;;;;19.06;41.42;101523.47;5084253;28;20071;-43
2022/03/28 07:54:55;;;;;;;16.63;7.68;;;;;;;19.06;40.89;101522.66;5085913;28;20093;-41
2022/03/28 07:57:21;;;;;;;11.48;7.72;;;;;;;19.06;40.59;101520.03;5080852;28;20471;-40
2022/03/28 07:59:48;;;;;;;11.85;7.82;;;;;;;19.05;40.19;101524.47;5082759;28;20024;-46
2022/03/28 08:02:14;;;;;;;13.50;8.02;;;;;;;19.04;39.84;101529.94;5081292;28;20040;-46
2022/03/28 08:04:40;;;;;;;12.07;8.07;;;;;;;19.02;39.66;101526.66;5083121;28;20047;-47
2022/03/28 08:07:08;;;;;;;10.20;7.82;;;;;;;19.01;39.85;101520.53;5081207;28;20035;-45
2022/03/28 08:09:35;;;;;;;11.98;7.40;;;;;;;19.01;40.08;101519.72;5086575;28;20426;-43
2022/03/28 08:12:05;;;;;;;10.35;7.07;;;;;;;19.00;39.91;101523.34;5086441;28;20466;-47
2022/03/28 08:14:31;;;;;;;11.05;7.40;;;;;;;18.99;39.59;101519.88;5086650;28;20048;-45
2022/03/28 08:16:57;;;;;;;14.60;8.00;;;;;;;18.97;39.23;101518.41;5084731;28;20017;-46
2022/03/28 08:19:23;;;;;;;10.85;7.88;;;;;;;18.97;38.93;101518.41;5079557;28;20027;-46
2022/03/28 08:21:49;;;;;;;12.68;7.97;;;;;;;18.96;39.04;101511.50;5081818;28;20032;-45
2022/03/28 08:24:14;;;;;;;12.15;8.00;;;;;;;18.96;39.31;101511.50;5086313;28;20398;-46
2022/03/28 08:26:40;;;;;;;13.45;8.13;;;;;;;18.95;38.91;101509.84;5086221;28;20051;-48
2022/03/28 08:29:07;;;;;;;15.38;10.40;;;;;;;18.90;36.80;101515.69;5065082;28;20059;-47
2022/03/28 08:31:33;;;;;;;15.32;9.90;;;;;;;18.86;35.63;101512.56;5083307;28;20071;-41
2022/03/28 08:33:59;;;;;;;11.00;9.27;;;;;;;18.86;35.42;101515.19;5087566;28;20028;-48
2022/03/28 08:36:24;;;;;;;13.52;9.48;;;;;;;18.85;35.60;101510.91;5087571;28;20118;-45
2022/03/28 08:38:50;;;;;;;14.98;10.43;;;;;;;18.85;35.44;101504.81;5089730;28;20075;-43
2022/03/28 08:41:18;;;;;;;12.90;10.57;;;;;;;18.84;34.45;101505.81;5088093;28;20263;-44
2022/03/28 08:43:44;;;;;;;11.68;10.02;;;;;;;18.83;34.15;101504.16;5090261;28;20054;-43
2022/03/28 08:46:18;;;;;;;15.32;10.77;;;;;;;18.82;34.06;101505.97;5087972;28;20126;-48
2022/03/28 08:48:44;;;;;;;13.50;9.77;;;;;;;18.81;34.62;101509.63;5088574;28;20119;-44
2022/03/28 08:51:12;;;;;;;15.40;9.68;;;;;;;18.80;34.51;101515.06;5084807;28;20028;-49
2022/03/28 08:53:39;;;;;;;13.75;10.07;;;;;;;18.78;34.11;101514.41;5084991;28;20178;-45
2022/03/28 08:56:05;;;;;;;14.48;9.98;;;;;;;18.77;34.18;101513.59;5081967;28;20123;-45
2022/03/28 08:58:30;;;;;;;11.68;8.93;;;;;;;18.76;34.22;101514.59;5082077;28;20056;-44
2022/03/28 09:00:56;;;;;;;16.00;11.18;;;;;;;18.78;33.86;101515.25;5085051;28;20156;-44
2022/03/28 09:03:42;;;;;;;15.65;10.43;;;;;;;18.76;33.28;101516.41;5088291;28;20036;-43
2022/03/28 09:06:35;;;;;;;18.92;11.30;;;;;;;18.74;33.40;101511.28;5071397;28;20035;-44
2022/03/28 09:09:21;;;;;;;17.65;10.55;;;;;;;18.74;33.35;101511.28;5081281;28;20045;-45
2022/03/28 09:11:51;;;;;;;;;;;;;;;18.68;33.00;101516.44;5083092;28;20052;-46
2022/03/28 09:14:30;;;;;;;31.83;12.77;;;;;;;18.69;33.39;101505.72;5089541;28;19962;-43
2022/03/28 09:17:02;;;;;;;29.50;12.35;;;;;;;18.73;33.53;101507.00;5088776;28;20078;-41
2022/03/28 09:19:50;;;;;;;24.65;12.02;;;;;;;18.73;33.61;101507.00;5089816;28;20032;-44
2022/03/28 09:22:23;;;;;;;25.13;12.68;;;;;;;18.75;33.71;101502.38;5088719;28;20123;-46
2022/03/28 09:24:50;;;;;;;34.30;12.52;;;;;;;18.76;33.81;101497.91;5088745;28;20039;-42
2022/03/28 09:27:25;;;;;;;16.60;12.00;;;;;;;18.73;33.15;101496.44;5069927;28;20028;-40
2022/03/28 09:29:58;;;;;;;21.65;13.07;;;;;;;18.73;33.21;101499.09;5063197;28;20052;-45
2022/03/28 09:32:29;;;;;;;24.25;11.75;;;;;;;18.75;32.66;101498.91;5084488;28;20110;-45
2022/03/28 09:35:03;;;;;;;21.30;11.80;;;;;;;18.73;32.12;101491.16;5074485;28;20480;-44
2022/03/28 09:37:29;;;;;;;14.77;11.40;;;;;;;18.76;32.44;101490.81;5088681;28;20047;-41
2022/03/28 09:39:55;;;;;;;17.98;11.82;;;;;;;18.77;32.20;101491.66;5084021;28;20505;-43
2022/03/28 09:42:23;;;;;;;14.52;11.70;;;;;;;18.77;32.54;101489.84;5034900;22;20061;-71
2022/03/28 09:44:51;;;;;;;15.77;11.55;;;;;;;18.78;32.57;101494.13;5060740;28;20060;-72
2022/03/28 09:47:19;;;;;;;15.50;11.60;;;;;;;18.77;32.49;101489.84;5050406;28;20456;-73
2022/03/28 09:49:46;;;;;;;20.20;11.93;;;;;;;18.78;32.56;101483.56;5045354;28;20428;-72
2022/03/28 09:52:14;;;;;;;14.15;11.38;;;;;;;18.78;32.66;101486.19;5045612;28;20064;-72
2022/03/28 09:55:06;;;;;;;16.20;12.27;;;;;;;18.73;32.75;101488.53;5048117;28;20464;-71
2022/03/28 09:57:34;;;;;;;18.33;12.20;;;;;;;18.73;33.11;101485.88;5038131;28;20128;-72
2022/03/28 10:00:15;;;;;;;18.08;11.77;;;;;;;18.70;33.00;101485.41;5047610;28;20048;-72
2022/03/28 10:02:41;;;;;;;15.00;11.23;;;;;;;18.72;33.37;101489.53;5046916;28;20071;-72
2022/03/28 10:05:07;;;;;;;17.23;11.93;;;;;;;18.70;33.69;101475.69;5041554;28;21309;-72
2022/03/28 10:07:33;;;;;;;15.13;11.68;;;;;;;18.77;35.01;101481.09;5047752;28;20065;-72
2022/03/28 10:10:00;;;;;;;19.35;11.73;;;;;;;18.90;36.03;101482.13;5043870;28;20059;-71
2022/03/28 10:12:25;;;;;;;15.82;12.90;;;;;;;19.03;38.49;101478.13;5046646;28;20025;-71
2022/03/28 10:14:57;;;;;;;14.85;12.35;;;;;;;19.12;41.21;101469.13;5046331;28;20075;-71
2022/03/28 10:17:28;;;;;;;18.95;13.27;;;;;;;19.21;43.27;101476.00;5044074;28;20043;-72
2022/03/28 10:19:54;;;;;;;16.27;12.23;;;;;;;19.29;43.39;101470.66;5042829;28;20535;-71
2022/03/28 10:22:27;;;;;;;16.98;13.32;;;;;;;19.33;45.44;101466.69;5046338;28;20032;-72
2022/03/28 10:24:55;;;;;;;16.05;13.50;;;;;;;19.31;44.41;101466.03;5043951;28;20408;-72
2022/03/28 10:27:21;;;;;;;15.10;11.15;;;;;;;19.24;42.13;101462.44;5042275;28;20037;-71
2022/03/28 10:29:47;;;;;;;11.85;9.88;;;;;;;19.16;41.24;101463.34;5045051;28;20681;-72
2022/03/28 10:32:18;;;;;;;13.50;10.45;;;;;;;19.09;40.27;101457.09;5047491;28;20204;-71
2022/03/28 10:35:11;;;;;;;12.10;10.20;;;;;;;19.02;39.79;101461.44;5043066;28;20045;-71
2022/03/28 10:37:39;;;;;;;12.73;8.43;;;;;;;19.00;39.68;101450.22;5036316;28;20171;-71
2022/03/28 10:40:26;;;;;;;10.77;9.50;;;;;;;18.96;39.36;101448.94;5048012;28;20029;-71
2022/03/28 10:43:09;;;;;;;12.52;8.38;;;;;;;18.95;38.98;101447.28;5044348;28;20056;-72
2022/03/28 10:46:06;;;;;;;10.23;8.05;;;;;;;18.92;38.37;101437.06;5047279;28;20037;-72
2022/03/28 10:48:48;;;;;;;;;;;;;;;18.85;38.44;101436.97;5047501;28;20060;-71
2022/03/28 10:51:16;;;;;;;15.77;10.38;;;;;;;18.89;39.00;101443.56;5047159;28;20019;-72
2022/03/28 10:53:47;;;;;;;13.02;11.05;;;;;;;18.98;39.41;101433.75;5048106;28;20108;-72
2022/03/28 10:56:14;;;;;;;468.40;363.10;;;;;;;19.07;39.49;101429.22;5048626;28;20124;-71
2022/03/28 10:58:48;;;;;;;153.68;104.28;;;;;;;19.13;38.92;101428.53;5047908;28;20025;-72
2022/03/28 11:01:15;;;;;;;117.10;68.07;;;;;;;19.12;38.99;101424.22;5028412;28;20119;-71
2022/03/28 11:04:00;;;;;;;120.78;69.07;;;;;;;19.08;39.12;101422.94;5044180;28;20603;-71
2022/03/28 11:06:49;;;;;;;109.55;64.18;;;;;;;19.06;39.08;101423.13;5043624;28;20025;-71
2022/03/28 11:09:50;;;;;;;97.28;57.50;;;;;;;19.04;39.45;101419.84;5042580;28;20060;-71
2022/03/28 11:12:33;;;;;;;88.25;52.67;;;;;;;19.05;39.45;101421.47;5045090;28;20056;-71
2022/03/28 11:15:15;;;;;;;77.03;43.80;;;;;;;19.04;39.32;101416.38;5042449;28;20045;-71
2022/03/28 11:18:09;;;;;;;63.13;41.55;;;;;;;19.02;39.29;101413.91;5041084;28;20055;-71
2022/03/28 11:20:52;;;;;;;75.22;41.30;;;;;;;19.03;39.73;101406.81;5044455;28;20029;-71
2022/03/28 11:23:24;;;;;;;63.97;38.03;;;;;;;19.06;40.50;101407.28;5045111;28;20060;-71
2022/03/28 11:25:53;;;;;;;55.22;34.80;;;;;;;19.08;40.29;101405.28;5046818;28;20048;-70
2022/03/28 11:28:22;;;;;;;46.97;29.80;;;;;;;19.08;40.15;101399.19;5046166;28;20044;-71